Time;durP1;ratioP1;P1;durP2;ratioP2;P2;SDS_P1;SDS_P2;PMS_P1;PMS_P2;Temp;Humidity;BMP_temperature;BMP_pressure;BME280_temperature;BME280_humidity;BME280_pressure;Samples;Min_cycle;Max_cycle;Signal;HPM_P1;HPM_P2
2023/09/24 00:01:16;;;;;;;97.68;52.40;;;15.00;97.90;;;;;;4952779;28;90516;-79
2023/09/24 00:03:43;;;;;;;96.88;52.15;;;15.00;97.70;;;;;;4964470;28;88697;-79
2023/09/24 00:06:10;;;;;;;97.40;52.47;;;15.00;97.80;;;;;;4950980;28;90847;-78
2023/09/24 00:08:36;;;;;;;98.70;52.08;;;15.00;97.80;;;;;;4945230;28;90626;-78
2023/09/24 00:11:02;;;;;;;95.93;52.08;;;15.00;98.00;;;;;;4954577;28;92521;-76
2023/09/24 00:13:28;;;;;;;98.60;52.25;;;14.90;98.10;;;;;;4954217;28;88798;-79
2023/09/24 00:15:54;;;;;;;98.40;52.10;;;15.00;97.50;;;;;;4973605;28;89793;-79
2023/09/24 00:18:20;;;;;;;97.32;52.47;;;14.90;98.30;;;;;;4969609;28;89048;-80
2023/09/24 00:20:46;;;;;;;98.32;52.28;;;14.90;97.60;;;;;;4980002;28;88878;-80
2023/09/24 00:23:14;;;;;;;97.55;52.25;;;14.90;97.80;;;;;;4968660;28;94867;-77
2023/09/24 00:25:40;;;;;;;96.93;52.47;;;14.90;97.60;;;;;;4982236;28;91208;-79
2023/09/24 00:28:07;;;;;;;97.13;52.15;;;14.90;97.80;;;;;;4975247;28;88407;-79
2023/09/24 00:30:34;;;;;;;96.22;51.97;;;14.90;97.90;;;;;;4979516;28;89122;-79
2023/09/24 00:33:00;;;;;;;96.72;52.30;;;14.90;98.20;;;;;;4972395;28;91174;-79
2023/09/24 00:35:26;;;;;;;97.43;52.47;;;14.90;97.90;;;;;;4979315;28;90104;-78
2023/09/24 00:37:52;;;;;;;98.13;52.38;;;14.90;97.80;;;;;;4972887;28;90512;-79
2023/09/24 00:40:19;;;;;;;96.93;52.15;;;14.80;97.90;;;;;;4976194;28;90289;-79
2023/09/24 00:42:45;;;;;;;97.20;52.47;;;14.80;97.90;;;;;;4962453;28;88916;-80
2023/09/24 00:45:12;;;;;;;96.18;52.17;;;14.80;98.00;;;;;;4975316;28;90569;-77
2023/09/24 00:47:43;;;;;;;96.72;52.28;;;14.80;98.50;;;;;;4973879;28;91530;-76
2023/09/24 00:50:10;;;;;;;97.15;52.45;;;14.80;98.00;;;;;;4969993;28;89403;-77
2023/09/24 00:52:36;;;;;;;98.10;52.53;;;14.80;97.70;;;;;;4981351;28;88446;-79
2023/09/24 00:55:05;;;;;;;98.40;52.35;;;14.70;97.30;;;;;;4975022;28;89197;-77
2023/09/24 00:57:32;;;;;;;96.85;52.35;;;14.70;98.40;;;;;;4981287;28;89154;-77
2023/09/24 00:59:59;;;;;;;96.50;52.33;;;14.70;98.00;;;;;;4978566;28;90303;-79
2023/09/24 01:02:25;;;;;;;98.32;52.70;;;14.80;98.50;;;;;;4974302;28;89142;-79
2023/09/24 01:04:53;;;;;;;96.45;52.08;;;14.70;97.70;;;;;;4979124;28;89664;-79
2023/09/24 01:07:21;;;;;;;96.30;52.13;;;14.70;97.90;;;;;;4948211;28;89122;-78
2023/09/24 01:09:48;;;;;;;97.20;52.38;;;14.80;98.00;;;;;;4979936;28;90529;-77
2023/09/24 01:12:25;;;;;;;96.68;52.30;;;14.70;97.10;;;;;;4969683;28;90952;-77
2023/09/24 01:14:53;;;;;;;96.38;52.20;;;14.70;98.50;;;;;;4981529;28;89744;-79
2023/09/24 01:17:20;;;;;;;96.90;52.45;;;14.70;97.80;;;;;;4971836;28;89323;-76
2023/09/24 01:19:46;;;;;;;96.28;52.22;;;14.70;97.40;;;;;;4984085;28;89178;-79
2023/09/24 01:22:12;;;;;;;96.75;52.40;;;14.70;97.70;;;;;;4957518;28;89433;-77
2023/09/24 01:24:38;;;;;;;97.25;52.38;;;14.60;97.80;;;;;;4976765;28;93445;-77
2023/09/24 01:27:04;;;;;;;95.03;51.75;;;14.60;97.70;;;;;;4980107;28;89578;-77
2023/09/24 01:29:29;;;;;;;96.18;52.13;;;14.60;97.80;;;;;;4973550;28;89401;-79
2023/09/24 01:31:55;;;;;;;96.03;51.95;;;14.60;98.00;;;;;;4976628;28;90650;-77
2023/09/24 01:34:23;;;;;;;96.18;52.17;;;14.60;98.10;;;;;;4977164;28;90590;-79
2023/09/24 01:36:49;;;;;;;96.30;51.95;;;14.60;98.10;;;;;;4977802;28;94001;-77
2023/09/24 01:39:18;;;;;;;95.50;52.00;;;14.60;98.10;;;;;;4972705;28;89507;-78
2023/09/24 01:41:45;;;;;;;96.65;52.25;;;14.60;97.80;;;;;;4982074;28;88443;-78
2023/09/24 01:44:13;;;;;;;96.75;52.00;;;14.60;97.80;;;;;;4974570;28;89967;-79
2023/09/24 01:46:39;;;;;;;96.05;51.85;;;14.60;97.70;;;;;;4981952;28;89913;-79
2023/09/24 01:49:04;;;;;;;98.60;52.60;;;14.50;97.40;;;;;;4982649;28;90398;-79
2023/09/24 01:51:31;;;;;;;98.28;52.33;;;14.50;97.90;;;;;;4970086;28;95577;-80
2023/09/24 01:53:59;;;;;;;98.05;52.25;;;14.60;97.70;;;;;;4979756;28;89288;-78
2023/09/24 01:56:24;;;;;;;98.57;52.22;;;14.60;98.50;;;;;;4972355;28;89322;-79
2023/09/24 01:58:51;;;;;;;96.07;51.95;;;14.60;98.00;;;;;;4974823;28;90008;-79
2023/09/24 02:01:17;;;;;;;96.43;52.03;;;14.60;98.20;;;;;;4978389;28;88667;-77
2023/09/24 02:03:46;;;;;;;96.35;51.85;;;14.60;98.50;;;;;;4963714;28;89623;-78
2023/09/24 02:06:16;;;;;;;98.38;52.50;;;14.60;98.10;;;;;;4958730;28;90316;-78
2023/09/24 02:08:42;;;;;;;96.88;52.50;;;14.50;98.20;;;;;;4965352;28;88931;-79
2023/09/24 02:11:07;;;;;;;97.93;52.40;;;14.60;98.50;;;;;;4977377;28;89253;-77
2023/09/24 02:13:33;;;;;;;97.15;52.40;;;14.60;98.40;;;;;;4976817;28;91035;-78
2023/09/24 02:16:00;;;;;;;96.57;52.03;;;14.60;97.60;;;;;;4958760;28;89937;-78
2023/09/24 02:18:32;;;;;;;95.45;52.08;;;14.50;98.30;;;;;;4942303;28;90911;-78
2023/09/24 02:20:59;;;;;;;;;;;14.50;97.70;;;;;;4960862;28;89128;-76
2023/09/24 02:23:25;;;;;;;96.30;52.00;;;14.50;98.00;;;;;;4942772;28;91669;-77
2023/09/24 02:25:51;;;;;;;96.78;52.08;;;14.50;97.80;;;;;;4952657;28;89638;-79
2023/09/24 02:28:18;;;;;;;95.63;51.92;;;14.50;98.00;;;;;;4958723;28;89349;-79
2023/09/24 02:30:44;;;;;;;97.82;52.67;;;14.50;98.50;;;;;;4947191;28;89686;-77
2023/09/24 02:33:09;;;;;;;97.10;52.33;;;14.50;97.80;;;;;;4941524;28;91936;-79
2023/09/24 02:35:36;;;;;;;96.10;52.10;;;14.50;97.90;;;;;;4956614;28;88972;-77
2023/09/24 02:38:02;;;;;;;96.45;52.17;;;14.50;98.00;;;;;;4963668;28;91138;-79
2023/09/24 02:40:28;;;;;;;96.38;52.35;;;14.40;97.80;;;;;;4970988;28;89301;-77
2023/09/24 02:42:56;;;;;;;96.32;52.20;;;14.40;98.30;;;;;;4956099;28;89284;-77
2023/09/24 02:45:22;;;;;;;96.75;52.30;;;14.40;97.90;;;;;;4961794;28;89337;-76
2023/09/24 02:47:49;;;;;;;95.97;52.13;;;14.40;98.20;;;;;;4962215;28;88890;-78
2023/09/24 02:50:16;;;;;;;96.93;52.38;;;14.40;98.00;;;;;;4953791;28;88530;-79
2023/09/24 02:52:48;;;;;;;95.13;51.80;;;14.40;97.60;;;;;;4968796;28;89299;-78
2023/09/24 02:55:15;;;;;;;95.20;51.72;;;14.40;98.10;;;;;;4959603;28;88633;-78
2023/09/24 02:57:42;;;;;;;95.88;51.85;;;14.40;98.60;;;;;;4971226;28;89346;-77
2023/09/24 03:00:15;;;;;;;96.05;51.95;;;14.40;98.40;;;;;;4953630;28;89345;-76
2023/09/24 03:02:41;;;;;;;94.93;51.95;;;14.40;97.90;;;;;;4967456;28;90338;-79
2023/09/24 03:05:41;;;;;;;95.82;52.15;;;14.40;97.90;;;;;;4954519;28;91443;-77
2023/09/24 03:08:00;;;;;;;95.28;51.97;;;14.40;98.30;;;;;;4953009;28;90439;-79
2023/09/24 03:10:26;;;;;;;95.30;51.75;;;14.40;97.90;;;;;;4974041;28;90998;-78
2023/09/24 03:12:54;;;;;;;95.72;52.08;;;14.30;98.10;;;;;;4944646;28;91458;-77
2023/09/24 03:15:23;;;;;;;94.90;51.90;;;14.40;98.00;;;;;;4957214;28;89275;-79
2023/09/24 03:17:51;;;;;;;96.57;51.95;;;14.30;97.10;;;;;;4964279;28;89245;-77
2023/09/24 03:20:20;;;;;;;95.15;51.80;;;14.30;98.00;;;;;;4951687;28;90654;-78
2023/09/24 03:22:51;;;;;;;96.22;51.75;;;14.30;98.00;;;;;;4958293;28;90218;-77
2023/09/24 03:25:21;;;;;;;96.35;52.08;;;14.30;98.40;;;;;;4954009;28;89274;-78
2023/09/24 03:27:48;;;;;;;97.95;52.35;;;14.30;97.60;;;;;;4962280;28;90858;-78
2023/09/24 03:30:14;;;;;;;95.97;52.00;;;14.30;97.90;;;;;;4937239;28;90011;-77
2023/09/24 03:32:41;;;;;;;95.85;52.17;;;14.30;98.10;;;;;;4962161;28;90484;-77
2023/09/24 03:35:10;;;;;;;95.93;52.45;;;14.30;98.00;;;;;;4955472;28;89064;-75
2023/09/24 03:37:43;;;;;;;95.20;51.83;;;14.30;98.00;;;;;;4959577;28;89232;-77
2023/09/24 03:40:19;;;;;;;95.15;51.92;;;14.30;98.10;;;;;;4958402;28;89305;-76
2023/09/24 03:42:45;;;;;;;96.13;52.03;;;14.30;98.20;;;;;;4963744;28;90407;-78
2023/09/24 03:45:24;;;;;;;95.55;52.20;;;14.30;98.40;;;;;;4962389;28;89242;-79
2023/09/24 03:47:51;;;;;;;95.60;51.85;;;14.30;97.50;;;;;;4945171;28;91307;-78
2023/09/24 03:50:17;;;;;;;95.32;52.08;;;14.30;97.90;;;;;;4952828;28;89203;-77
2023/09/24 03:52:46;;;;;;;94.68;51.75;;;14.30;98.10;;;;;;4950773;28;91185;-77
2023/09/24 03:55:11;;;;;;;96.03;52.15;;;14.30;97.90;;;;;;4958671;28;90132;-77
2023/09/24 03:57:38;;;;;;;95.75;51.78;;;14.30;98.30;;;;;;4951987;28;89552;-77
2023/09/24 04:00:11;;;;;;;94.45;51.50;;;14.30;97.90;;;;;;4951698;28;92767;-78
2023/09/24 04:02:38;;;;;;;95.57;51.85;;;14.20;97.60;;;;;;4963113;28;89044;-78
2023/09/24 04:05:05;;;;;;;96.32;51.95;;;14.20;98.60;;;;;;4959722;28;91735;-77
2023/09/24 04:07:30;;;;;;;95.15;52.05;;;14.20;97.90;;;;;;4941501;28;92320;-79
2023/09/24 04:09:57;;;;;;;95.10;51.53;;;14.20;98.10;;;;;;4964154;28;88741;-78
2023/09/24 04:12:22;;;;;;;94.57;51.70;;;14.20;98.00;;;;;;4964532;28;90201;-77
2023/09/24 04:14:53;;;;;;;95.03;51.88;;;14.20;97.50;;;;;;4966471;28;89022;-78
2023/09/24 04:17:19;;;;;;;94.93;51.83;;;14.20;98.20;;;;;;4978102;28;90639;-77
2023/09/24 04:19:45;;;;;;;95.15;51.90;;;14.20;97.80;;;;;;4989262;28;89640;-78
2023/09/24 04:22:10;;;;;;;95.10;52.10;;;14.20;98.80;;;;;;4974967;28;90067;-77
2023/09/24 04:24:36;;;;;;;95.22;51.85;;;14.20;98.10;;;;;;4982970;28;88778;-78
2023/09/24 04:27:01;;;;;;;95.50;51.85;;;14.20;98.00;;;;;;4978810;28;89102;-78
2023/09/24 04:29:27;;;;;;;95.78;51.60;;;14.10;97.50;;;;;;4985122;28;88690;-78
2023/09/24 04:31:53;;;;;;;96.07;51.90;;;14.20;97.70;;;;;;4977449;28;90163;-76
2023/09/24 04:34:19;;;;;;;96.35;51.92;;;14.20;97.50;;;;;;4986190;28;89172;-79
2023/09/24 04:36:45;;;;;;;95.70;51.90;;;14.10;97.80;;;;;;4974125;28;89361;-79
2023/09/24 04:39:10;;;;;;;95.13;51.90;;;14.10;97.80;;;;;;4980550;28;90120;-78
2023/09/24 04:41:42;;;;;;;95.15;52.05;;;14.10;97.70;;;;;;4975744;28;90760;-78
2023/09/24 04:44:07;;;;;;;;;;;14.10;97.70;;;;;;4978915;28;90875;-77
2023/09/24 04:46:34;;;;;;;94.57;51.63;;;14.10;97.80;;;;;;4983531;28;88500;-77
2023/09/24 04:49:04;;;;;;;95.07;51.63;;;14.10;98.10;;;;;;4975884;28;89251;-79
2023/09/24 04:51:30;;;;;;;94.95;51.83;;;14.10;97.60;;;;;;4976877;28;90906;-78
2023/09/24 04:53:56;;;;;;;95.18;51.97;;;14.10;98.30;;;;;;4970784;28;90232;-79
2023/09/24 04:56:21;;;;;;;93.75;51.55;;;14.10;98.00;;;;;;4979080;28;89214;-78
2023/09/24 04:58:47;;;;;;;94.38;51.47;;;14.00;97.70;;;;;;4975349;28;89379;-79
2023/09/24 05:01:13;;;;;;;95.20;51.75;;;14.00;98.00;;;;;;4977805;28;89061;-77
2023/09/24 05:03:38;;;;;;;94.50;51.78;;;14.00;97.90;;;;;;4957054;28;89568;-78
2023/09/24 05:06:05;;;;;;;93.90;51.42;;;14.10;97.90;;;;;;4961809;28;91010;-76
2023/09/24 05:08:32;;;;;;;94.75;51.95;;;14.00;97.50;;;;;;4984028;28;89125;-76
2023/09/24 05:10:58;;;;;;;94.93;51.47;;;14.00;97.60;;;;;;4986117;28;89451;-78
2023/09/24 05:13:23;;;;;;;94.05;51.55;;;14.00;98.00;;;;;;4977406;28;88890;-76
2023/09/24 05:15:59;;;;;;;94.80;51.65;;;14.00;98.20;;;;;;4980213;28;88429;-79
2023/09/24 05:18:26;;;;;;;95.45;51.58;;;14.00;97.70;;;;;;4982830;28;89147;-77
2023/09/24 05:20:51;;;;;;;95.18;51.78;;;14.00;97.80;;;;;;4972412;28;90430;-78
2023/09/24 05:23:17;;;;;;;94.25;51.47;;;14.00;97.90;;;;;;4984885;28;89348;-78
2023/09/24 05:25:42;;;;;;;96.22;51.67;;;14.00;98.00;;;;;;4980909;22;90663;-47
2023/09/24 05:28:08;;;;;;;95.47;51.88;;;14.00;97.70;;;;;;4978332;28;89755;-48
2023/09/24 05:30:35;;;;;;;97.30;51.92;;;13.90;97.30;;;;;;4943852;28;91015;-50
2023/09/24 05:33:00;;;;;;;95.93;51.58;;;13.90;97.90;;;;;;4972894;28;91918;-50
2023/09/24 05:35:26;;;;;;;94.57;51.65;;;14.00;98.80;;;;;;4967480;28;93237;-47
2023/09/24 05:37:51;;;;;;;94.38;51.70;;;14.10;98.40;;;;;;4971384;28;90056;-45
2023/09/24 05:40:17;;;;;;;93.88;51.78;;;14.10;98.00;;;;;;4968287;28;90961;-47
2023/09/24 05:42:43;;;;;;;95.60;51.42;;;14.00;97.90;;;;;;4971426;28;89755;-50
2023/09/24 05:45:09;;;;;;;95.75;51.70;;;14.00;98.10;;;;;;4970180;28;90535;-49
2023/09/24 05:47:35;;;;;;;95.45;51.95;;;14.00;98.40;;;;;;4966239;28;89667;-47
2023/09/24 05:50:04;;;;;;;94.70;51.85;;;14.10;98.10;;;;;;4967414;28;91831;-49
2023/09/24 05:52:30;;;;;;;95.65;51.60;;;14.10;97.70;;;;;;4966489;28;90028;-47
2023/09/24 05:54:56;;;;;;;94.15;51.78;;;14.10;97.80;;;;;;4965753;28;91383;-50
2023/09/24 05:57:26;;;;;;;95.63;51.58;;;14.00;97.70;;;;;;4959466;22;90053;-78
2023/09/24 05:59:54;;;;;;;93.38;51.17;;;14.00;97.90;;;;;;4964733;22;91280;-44
2023/09/24 06:02:26;;;;;;;93.85;51.50;;;14.10;97.70;;;;;;4961628;28;90761;-44
2023/09/24 06:04:55;;;;;;;95.03;51.55;;;14.00;97.10;;;;;;4969740;28;89281;-45
2023/09/24 06:07:21;;;;;;;94.40;51.45;;;14.10;98.10;;;;;;4972317;28;90162;-43
2023/09/24 06:09:46;;;;;;;94.35;51.53;;;14.10;97.60;;;;;;4965915;28;90455;-46
2023/09/24 06:12:12;;;;;;;94.30;51.25;;;14.00;97.80;;;;;;4973767;28;88881;-43
2023/09/24 06:14:39;;;;;;;95.30;51.85;;;14.10;97.70;;;;;;4968811;28;91622;-44
2023/09/24 06:17:04;;;;;;;95.55;51.95;;;14.10;97.90;;;;;;4972087;28;89250;-43
2023/09/24 06:19:30;;;;;;;93.25;51.30;;;14.20;97.60;;;;;;4968071;28;96578;-44
2023/09/24 06:21:56;;;;;;;96.57;51.55;;;14.20;97.20;;;;;;4976879;28;90026;-46
2023/09/24 06:24:23;;;;;;;95.72;51.90;;;14.20;97.60;;;;;;4966981;28;91591;-43
2023/09/24 06:26:48;;;;;;;94.82;51.65;;;14.20;97.10;;;;;;4975416;28;89257;-44
2023/09/24 06:29:14;;;;;;;93.90;51.50;;;14.20;97.50;;;;;;4975886;28;90626;-43
2023/09/24 06:31:40;;;;;;;94.40;51.75;;;14.20;97.40;;;;;;4975270;28;90331;-44
2023/09/24 06:34:06;;;;;;;94.07;51.47;;;14.20;97.30;;;;;;4969813;28;91697;-44
2023/09/24 06:39:08;;;;;;;94.85;52.40;;;14.30;97.30;;;;;;4981758;28;90001;-90
2023/09/24 06:41:35;;;;;;;96.18;52.35;;;14.30;97.40;;;;;;4984133;28;89828;-89
2023/09/24 06:44:00;;;;;;;96.38;52.13;;;14.30;97.50;;;;;;4967039;28;89974;-89
2023/09/24 06:46:26;;;;;;;94.10;51.75;;;14.30;96.80;;;;;;4969935;28;88814;-89
2023/09/24 06:48:52;;;;;;;94.88;52.08;;;14.40;98.10;;;;;;4971924;28;91920;-90
2023/09/24 06:51:17;;;;;;;94.90;52.05;;;14.40;97.20;;;;;;4962947;28;92487;-89
2023/09/24 06:53:44;;;;;;;95.60;51.90;;;14.40;97.60;;;;;;4964886;28;88636;-89
2023/09/24 06:56:10;;;;;;;96.15;52.00;;;14.40;97.30;;;;;;4970022;28;88763;-89
2023/09/24 06:58:36;;;;;;;94.72;52.20;;;14.50;97.40;;;;;;4983472;28;91581;-90
2023/09/24 07:01:03;;;;;;;97.22;52.45;;;14.50;97.10;;;;;;4987939;28;90061;-89
2023/09/24 07:03:29;;;;;;;95.78;52.17;;;14.50;97.70;;;;;;4973100;28;88709;-90
2023/09/24 07:05:55;;;;;;;95.38;52.03;;;14.60;97.50;;;;;;4990361;28;88629;-90
2023/09/24 07:08:21;;;;;;;96.40;52.25;;;14.60;97.20;;;;;;4970905;28;92610;-90
2023/09/24 07:11:18;;;;;;;96.05;52.15;;;14.70;97.30;;;;;;4988908;28;92057;-89
2023/09/24 07:13:44;;;;;;;94.63;52.20;;;14.70;97.00;;;;;;4968838;28;89355;-90
2023/09/24 07:16:09;;;;;;;96.10;52.22;;;14.70;97.50;;;;;;4985592;28;88544;-89
2023/09/24 07:18:35;;;;;;;97.30;52.45;;;14.80;97.50;;;;;;4983582;28;90048;-89
2023/09/24 07:21:02;;;;;;;96.78;52.35;;;14.90;97.20;;;;;;4998932;28;89348;-88
2023/09/24 07:23:28;;;;;;;97.30;52.50;;;14.90;96.90;;;;;;4988689;28;88638;-88
2023/09/24 07:25:53;;;;;;;95.53;52.10;;;14.90;97.30;;;;;;4987455;28;87795;-89
2023/09/24 07:28:21;;;;;;;96.75;52.33;;;14.90;97.00;;;;;;5004852;28;91178;-88
2023/09/24 07:30:46;;;;;;;95.60;51.83;;;14.90;96.90;;;;;;4987493;28;90148;-89
2023/09/24 07:33:12;;;;;;;97.05;52.30;;;14.90;96.80;;;;;;5001910;28;89544;-89
2023/09/24 07:35:39;;;;;;;97.25;52.47;;;14.90;96.80;;;;;;4983496;28;88854;-89
2023/09/24 07:38:04;;;;;;;97.50;52.15;;;15.00;97.10;;;;;;4995145;28;89053;-88
2023/09/24 07:40:30;;;;;;;96.25;52.45;;;15.00;97.00;;;;;;4975547;28;91708;-89
2023/09/24 07:42:56;;;;;;;97.03;52.60;;;15.00;96.10;;;;;;4975379;28;88607;-89
2023/09/24 07:45:22;;;;;;;97.55;52.28;;;15.00;97.00;;;;;;4977752;28;88927;-89
2023/09/24 07:47:48;;;;;;;96.18;52.35;;;15.00;96.90;;;;;;4979564;28;92246;-89
2023/09/24 07:50:13;;;;;;;99.50;52.50;;;15.00;97.00;;;;;;4978012;28;90744;-90
2023/09/24 07:52:39;;;;;;;96.25;52.30;;;15.00;96.90;;;;;;4986271;28;88628;-89
2023/09/24 07:55:06;;;;;;;98.53;52.50;;;15.00;97.00;;;;;;5003212;28;88740;-90
2023/09/24 07:57:32;;;;;;;96.13;52.35;;;15.10;97.10;;;;;;4999696;28;91017;-90
2023/09/24 07:59:57;;;;;;;97.15;52.55;;;15.20;97.10;;;;;;4994007;28;92754;-90
2023/09/24 08:02:23;;;;;;;97.03;52.40;;;15.20;96.20;;;;;;4983647;28;89220;-90
2023/09/24 08:04:49;;;;;;;98.03;52.45;;;15.30;96.70;;;;;;4987617;28;89476;-89
2023/09/24 08:07:15;;;;;;;99.90;52.88;;;15.30;96.60;;;;;;4966633;28;91796;-90
2023/09/24 08:09:42;;;;;;;97.13;52.50;;;15.30;96.50;;;;;;4975927;28;90948;-89
2023/09/24 08:12:07;;;;;;;99.32;52.83;;;15.40;96.30;;;;;;4965508;28;91155;-87
2023/09/24 08:14:33;;;;;;;100.68;52.90;;;15.50;96.80;;;;;;4964202;28;89711;-89
2023/09/24 08:16:59;;;;;;;97.90;52.83;;;15.50;96.50;;;;;;4969838;28;91840;-89
2023/09/24 08:19:30;;;;;;;100.10;53.15;;;15.50;95.90;;;;;;4976972;28;89194;-88
2023/09/24 08:21:57;;;;;;;97.88;52.88;;;15.50;96.10;;;;;;4958157;28;90332;-88
2023/09/24 08:24:23;;;;;;;99.05;53.13;;;15.50;96.20;;;;;;4975576;28;92923;-89
2023/09/24 08:26:48;;;;;;;100.15;52.88;;;15.60;96.20;;;;;;4960726;28;91500;-88
2023/09/24 08:29:14;;;;;;;99.35;53.03;;;15.60;97.30;;;;;;4959218;28;92435;-88
2023/09/24 08:31:40;;;;;;;103.30;53.63;;;15.70;96.90;;;;;;4950481;28;91925;-88
2023/09/24 08:34:06;;;;;;;100.40;53.20;;;15.80;96.60;;;;;;4960087;28;90594;-87
2023/09/24 08:36:32;;;;;;;100.63;52.83;;;15.80;96.70;;;;;;4960770;28;92126;-87
2023/09/24 08:38:58;;;;;;;100.65;53.33;;;15.80;96.10;;;;;;4981030;28;91201;-87
2023/09/24 08:41:24;;;;;;;102.50;53.58;;;15.90;96.90;;;;;;4994472;28;89442;-87
2023/09/24 08:43:55;;;;;;;101.78;53.13;;;15.90;96.30;;;;;;4987061;28;89498;-88
2023/09/24 08:46:21;;;;;;;101.78;53.55;;;15.90;96.10;;;;;;4999669;28;90879;-86
2023/09/24 08:48:48;;;;;;;100.72;53.20;;;15.90;95.20;;;;;;4983982;28;94084;-90
2023/09/24 08:51:15;;;;;;;99.72;52.78;;;15.80;95.70;;;;;;4978830;28;90898;-88
2023/09/24 08:53:41;;;;;;;99.50;53.22;;;15.80;95.10;;;;;;5000079;28;89584;-86
2023/09/24 08:56:07;;;;;;;102.35;53.20;;;15.90;96.20;;;;;;4982037;28;92991;-87
2023/09/24 08:58:32;;;;;;;102.30;52.85;;;15.80;95.40;;;;;;4993046;28;92132;-87
2023/09/24 09:01:00;;;;;;;101.07;53.25;;;16.00;95.60;;;;;;4979065;28;91994;-88
2023/09/24 09:03:27;;;;;;;103.85;53.17;;;16.00;95.30;;;;;;4989385;28;89262;-88
2023/09/24 09:05:53;;;;;;;104.63;53.50;;;16.00;95.60;;;;;;4991526;28;89972;-85
2023/09/24 09:08:18;;;;;;;104.00;53.83;;;16.10;95.50;;;;;;4976278;28;91175;-87
2023/09/24 09:10:49;;;;;;;104.40;53.83;;;16.20;95.70;;;;;;4970027;28;90169;-88
2023/09/24 09:13:19;;;;;;;102.95;53.25;;;16.30;95.50;;;;;;5001791;28;89229;-86
2023/09/24 09:15:46;;;;;;;101.93;53.53;;;16.40;95.00;;;;;;4979554;28;91528;-83
2023/09/24 09:18:34;;;;;;;109.88;53.63;;;16.40;93.00;;;;;;4997215;28;89604;-84
2023/09/24 09:21:00;;;;;;;101.53;53.58;;;16.30;92.50;;;;;;4986474;28;89408;-84
2023/09/24 09:23:31;;;;;;;101.05;53.55;;;16.20;91.70;;;;;;4977572;28;89406;-84
2023/09/24 09:25:57;;;;;;;105.47;53.70;;;16.30;90.90;;;;;;4979004;28;91825;-85
2023/09/24 09:28:27;;;;;;;102.05;53.50;;;16.40;92.90;;;;;;4972873;28;91536;-85
2023/09/24 09:31:02;;;;;;;101.35;53.47;;;16.40;90.70;;;;;;4973966;28;90146;-86
2023/09/24 09:33:29;;;;;;;104.93;53.80;;;16.30;92.60;;;;;;4997438;28;89379;-85
2023/09/24 09:35:57;;;;;;;102.05;53.97;;;16.40;91.30;;;;;;4975793;28;92006;-84
2023/09/24 09:38:23;;;;;;;103.38;53.70;;;16.50;91.40;;;;;;4989635;28;92634;-86
2023/09/24 09:40:54;;;;;;;102.82;53.58;;;16.60;91.10;;;;;;4998804;28;89056;-86
2023/09/24 09:43:23;;;;;;;103.90;53.63;;;16.60;91.00;;;;;;4989102;28;89067;-85
2023/09/24 09:45:51;;;;;;;104.43;53.65;;;16.70;89.40;;;;;;4983407;28;93286;-85
2023/09/24 09:48:26;;;;;;;102.90;54.08;;;16.80;91.10;;;;;;4985295;28;92821;-83
2023/09/24 09:50:52;;;;;;;104.68;53.72;;;16.90;88.70;;;;;;4990888;28;89059;-83
2023/09/24 09:53:21;;;;;;;101.97;53.60;;;16.90;88.10;;;;;;4985961;28;88163;-82
2023/09/24 09:55:50;;;;;;;102.15;53.70;;;16.80;87.80;;;;;;4989261;28;94099;-84
2023/09/24 09:58:16;;;;;;;103.80;53.90;;;16.90;88.10;;;;;;4980100;28;93033;-84
2023/09/24 10:00:42;;;;;;;104.28;53.67;;;17.00;87.80;;;;;;4994904;28;91663;-84
2023/09/24 10:03:09;;;;;;;102.00;53.55;;;17.00;85.60;;;;;;4999157;28;89317;-82
2023/09/24 10:05:36;;;;;;;102.35;53.88;;;17.10;85.90;;;;;;4997868;28;89575;-83
2023/09/24 10:08:40;;;;;;;106.80;54.28;;;17.20;86.40;;;;;;4981477;28;93061;-83
2023/09/24 10:11:07;;;;;;;103.32;53.78;;;17.20;86.60;;;;;;4999812;28;89700;-82
2023/09/24 10:13:50;;;;;;;106.05;53.85;;;17.20;84.50;;;;;;5000793;28;90727;-83
2023/09/24 10:16:31;;;;;;;101.53;53.83;;;17.20;83.30;;;;;;4983371;28;90997;-83
2023/09/24 10:19:00;;;;;;;106.68;54.08;;;17.20;86.00;;;;;;4988748;28;92675;-83
2023/09/24 10:21:44;;;;;;;102.53;53.78;;;17.30;84.40;;;;;;5008742;28;89288;-81
2023/09/24 10:24:13;;;;;;;107.13;54.10;;;17.30;82.80;;;;;;4993143;28;88901;-86
2023/09/24 10:27:01;;;;;;;101.55;53.63;;;17.40;83.10;;;;;;5021450;28;90772;-85
2023/09/24 10:29:45;;;;;;;104.75;54.00;;;17.40;84.50;;;;;;4996209;28;93170;-85
2023/09/24 10:32:23;;;;;;;103.28;54.05;;;17.40;82.70;;;;;;4997993;28;88624;-86
2023/09/24 10:34:54;;;;;;;103.40;54.03;;;17.50;84.00;;;;;;5000254;28;89262;-85
2023/09/24 10:37:21;;;;;;;;;;;17.60;79.10;;;;;;5018781;28;89660;-85
2023/09/24 10:40:04;;;;;;;106.45;54.28;;;17.60;80.40;;;;;;5018990;28;91616;-86
2023/09/24 10:42:44;;;;;;;104.32;54.15;;;17.60;80.40;;;;;;5019176;28;88607;-86
2023/09/24 10:45:10;;;;;;;105.30;54.05;;;17.70;78.60;;;;;;5012203;28;88097;-87
2023/09/24 10:47:40;;;;;;;104.60;54.22;;;17.70;81.40;;;;;;4999576;28;92682;-86
2023/09/24 10:50:12;;;;;;;106.55;53.58;;;17.70;77.60;;;;;;4998030;28;90479;-86
2023/09/24 10:53:00;;;;;;;107.43;53.85;;;17.80;79.00;;;;;;4996738;28;89569;-86
2023/09/24 10:55:29;;;;;;;103.07;53.88;;;17.80;78.90;;;;;;4999446;28;88617;-85
2023/09/24 10:58:02;;;;;;;103.32;54.25;;;17.90;79.70;;;;;;4999479;28;91847;-82
2023/09/24 11:00:30;;;;;;;104.50;53.95;;;18.00;77.70;;;;;;5006059;28;91496;-84
2023/09/24 11:03:03;;;;;;;107.38;54.50;;;18.20;76.70;;;;;;4986579;28;88854;-84
2023/09/24 11:05:33;;;;;;;109.05;54.42;;;18.30;75.90;;;;;;4992190;28;88836;-85
2023/09/24 11:07:59;;;;;;;105.07;54.67;;;18.30;75.40;;;;;;4998314;28;92519;-84
2023/09/24 11:10:26;;;;;;;105.75;54.53;;;18.40;77.20;;;;;;4997808;28;92866;-83
2023/09/24 11:12:54;;;;;;;104.53;54.53;;;18.60;74.20;;;;;;5028440;28;88685;-85
2023/09/24 11:15:21;;;;;;;105.38;54.90;;;18.60;71.90;;;;;;4994597;28;88667;-85
2023/09/24 11:17:48;;;;;;;106.10;54.35;;;18.60;74.10;;;;;;5015901;28;93855;-85
2023/09/24 11:20:17;;;;;;;105.20;54.47;;;18.70;75.80;;;;;;5006157;28;89711;-84
2023/09/24 11:22:43;;;;;;;105.32;54.28;;;18.80;74.70;;;;;;4995102;28;89518;-85
2023/09/24 11:25:14;;;;;;;104.30;54.45;;;18.90;74.60;;;;;;5006756;28;89034;-84
2023/09/24 11:27:47;;;;;;;107.35;54.67;;;18.90;72.90;;;;;;4990597;28;92558;-84
2023/09/24 11:30:15;;;;;;;109.47;54.72;;;18.90;72.70;;;;;;5006618;28;89585;-84
2023/09/24 11:32:50;;;;;;;106.82;54.53;;;18.90;71.60;;;;;;4997307;28;89112;-85
2023/09/24 11:35:22;;;;;;;106.35;55.08;;;19.00;70.80;;;;;;4988915;28;87969;-87
2023/09/24 11:37:58;;;;;;;106.10;54.90;;;19.00;71.20;;;;;;4997189;28;93022;-85
2023/09/24 11:40:34;;;;;;;104.70;54.33;;;19.00;70.10;;;;;;4991925;28;92277;-85
2023/09/24 11:43:08;;;;;;;108.05;54.92;;;19.00;69.40;;;;;;5005272;28;91653;-83
2023/09/24 11:45:53;;;;;;;105.72;54.28;;;19.00;70.10;;;;;;5033063;28;88851;-84
2023/09/24 11:48:18;;;;;;;105.35;54.70;;;19.10;69.30;;;;;;5004602;28;92835;-86
2023/09/24 11:50:51;;;;;;;106.13;54.25;;;19.20;68.90;;;;;;4998089;28;92852;-86
2023/09/24 11:53:19;;;;;;;105.95;54.35;;;19.20;69.90;;;;;;4995922;28;88814;-87
2023/09/24 11:55:45;;;;;;;105.78;54.50;;;19.30;70.20;;;;;;4987828;28;88852;-86
2023/09/24 11:58:11;;;;;;;106.00;54.72;;;19.40;69.60;;;;;;4988174;28;91737;-82
2023/09/24 12:00:43;;;;;;;106.05;54.50;;;19.40;68.60;;;;;;4999116;28;92239;-84
2023/09/24 12:03:09;;;;;;;107.95;54.78;;;19.40;68.30;;;;;;5022973;28;88590;-85
2023/09/24 12:05:35;;;;;;;105.97;54.88;;;19.40;67.10;;;;;;5020787;28;88602;-85
2023/09/24 12:08:03;;;;;;;108.07;54.78;;;19.50;68.70;;;;;;5005278;28;92969;-84
2023/09/24 12:10:30;;;;;;;104.75;54.42;;;19.50;65.70;;;;;;4997674;28;93124;-83
2023/09/24 12:13:01;;;;;;;107.35;54.70;;;19.50;68.40;;;;;;4996827;28;88900;-84
2023/09/24 12:15:29;;;;;;;105.97;54.67;;;19.60;66.50;;;;;;4980843;28;88816;-84
2023/09/24 12:17:56;;;;;;;106.85;54.70;;;19.60;67.00;;;;;;4998148;28;93307;-89
2023/09/24 12:20:22;;;;;;;105.72;55.15;;;19.60;64.50;;;;;;4997306;28;92129;-84
2023/09/24 12:22:48;;;;;;;105.88;54.65;;;19.60;66.10;;;;;;4990560;28;88771;-84
2023/09/24 12:25:14;;;;;;;106.05;54.88;;;19.70;66.40;;;;;;4999754;28;87902;-87
2023/09/24 12:27:40;;;;;;;105.35;54.40;;;19.60;67.10;;;;;;5016779;28;89739;-86
2023/09/24 12:30:08;;;;;;;108.55;54.70;;;19.70;66.30;;;;;;5015640;28;89516;-86
2023/09/24 12:32:41;;;;;;;105.68;54.58;;;19.70;65.80;;;;;;4998299;28;89682;-85